KMOT/MOT METAR and TAF weather

Enter ICAO airport designator
Station Type Date Time Source
KMOT METAR 2019/12/06 23:54 UTC NOAA

KMOT 062354Z 00000KT 10SM OVC013 01/M02 A3003 RMK AO2 SLP197 T00061022 10017 21017 53004


Station Type Date Time Source
KMOT Decoded METAR 2019/12/06 23:54 UTC NOAA

MINOT INTERNATIONAL AIRPORT , ND, United States (KMOT) 48-16N 101-17W 519M
Dec 06, 2019 - 06:54 PM EST / 2019.12.06 2354 UTC
Wind: Calm:0
Visibility: 10 mile(s):0
Sky conditions: overcast
Temperature: 33.1 F (0.6 C)
Dew Point: 28.0 F (-2.2 C)
Relative Humidity: 81%
Pressure (altimeter): 30.03 in. Hg (1016 hPa)
Pressure tendency: 0.01 inches (0.4 hPa) higher than three hours ago
ob: KMOT 062354Z 00000KT 10SM OVC013 01/M02 A3003 RMK AO2 SLP197 T00061022 10017 21017 53004
cycle: 0

Station Type Date Time Source
KMOT TAF 2019/12/06 23:06 UTC NOAA

TAF
AMD KMOT 062304Z 0623/0718 27005KT P6SM OVC014
FM070400 VRB03KT P6SM BKN060
FM070800 VRB04KT P6SM BKN015
FM070900 18005KT P6SM BKN050

Example: see airport list